createdAt,value
2022-12-01T00:02:07.037Z,46.13
2022-12-01T00:04:34.235Z,43.13
2022-12-01T00:07:01.345Z,38.25
2022-12-01T00:09:47.681Z,39.55
2022-12-01T00:12:14.990Z,44.85
2022-12-01T00:14:42.025Z,45.05
2022-12-01T00:17:09.098Z,49.08
2022-12-01T00:19:36.154Z,44.60
2022-12-01T00:22:03.303Z,42.55
2022-12-01T00:24:30.368Z,49.75
2022-12-01T00:26:57.685Z,41.85
2022-12-01T00:29:24.767Z,47.22
2022-12-01T00:31:51.848Z,42.15
2022-12-01T00:34:22.677Z,44.28
2022-12-01T00:36:49.832Z,42.35
2022-12-01T00:39:16.872Z,45.03
2022-12-01T00:41:43.918Z,45.33
2022-12-01T00:44:11.071Z,43.65
2022-12-01T00:46:38.252Z,50.60
2022-12-01T00:49:06.135Z,48.85
2022-12-01T00:51:33.178Z,49.42
2022-12-01T00:54:00.369Z,41.88
2022-12-01T00:56:27.534Z,55.20
2022-12-01T00:58:54.621Z,46.95
2022-12-01T01:01:21.754Z,52.83
2022-12-01T01:03:48.894Z,42.60
2022-12-01T01:06:16.520Z,45.97
2022-12-01T01:08:43.650Z,50.63
2022-12-01T01:11:10.761Z,54.50
2022-12-01T01:13:37.972Z,50.15
2022-12-01T01:16:05.199Z,48.05
2022-12-01T01:18:32.699Z,59.15
2022-12-01T01:21:00.603Z,52.58
2022-12-01T01:23:27.692Z,54.83
2022-12-01T01:25:54.716Z,48.10
2022-12-01T01:28:21.812Z,49.78
2022-12-01T01:30:49.053Z,44.00
2022-12-01T01:33:16.164Z,45.72
2022-12-01T01:35:43.281Z,45.25
2022-12-01T01:38:11.430Z,48.53
2022-12-01T01:40:45.539Z,45.85
2022-12-01T01:43:18.390Z,59.10
2022-12-01T01:45:46.094Z,50.10
2022-12-01T01:48:14.510Z,50.05
2022-12-01T01:50:42.529Z,52.40
2022-12-01T01:53:11.493Z,46.80
2022-12-01T01:55:38.887Z,55.85
2022-12-01T01:58:09.931Z,55.95
2022-12-01T02:00:38.685Z,51.85
2022-12-01T02:03:05.850Z,53.53
2022-12-01T02:05:34.519Z,50.28
2022-12-01T02:08:02.729Z,49.33
2022-12-01T02:10:48.648Z,56.10
2022-12-01T02:13:27.964Z,59.78
2022-12-01T02:16:15.122Z,47.22
2022-12-01T02:19:00.737Z,58.22
2022-12-01T02:21:46.441Z,54.67
2022-12-01T02:24:19.511Z,51.22
2022-12-01T02:27:07.487Z,57.63
2022-12-01T02:29:53.150Z,53.92
2022-12-01T02:32:38.472Z,52.47
2022-12-01T02:35:08.424Z,49.28
2022-12-01T02:37:50.134Z,50.85
2022-12-01T02:40:20.419Z,58.67
2022-12-01T02:42:50.565Z,52.08
2022-12-01T02:45:21.301Z,52.92
2022-12-01T02:47:49.455Z,54.42
2022-12-01T02:50:16.809Z,48.95
2022-12-01T02:52:44.042Z,54.95
2022-12-01T02:55:11.092Z,52.78
2022-12-01T02:57:38.202Z,54.97
2022-12-01T03:00:06.623Z,51.10
2022-12-01T03:02:44.508Z,57.45
2022-12-01T03:05:35.005Z,52.08
2022-12-01T03:08:02.138Z,53.45
2022-12-01T03:10:38.831Z,60.70
2022-12-01T03:13:14.937Z,57.55
2022-12-01T03:15:51.316Z,56.70
2022-12-01T03:18:30.702Z,54.97
2022-12-01T03:21:02.505Z,51.03
2022-12-01T03:23:31.312Z,47.58
2022-12-01T03:25:59.964Z,54.53
2022-12-01T03:28:30.890Z,57.85
2022-12-01T03:31:00.638Z,59.38
2022-12-01T03:33:33.250Z,51.83
2022-12-01T03:36:21.468Z,49.65
2022-12-01T03:38:50.579Z,51.30
2022-12-01T03:41:19.607Z,55.65
2022-12-01T03:43:50.955Z,54.42
2022-12-01T03:46:36.111Z,49.50
2022-12-01T03:49:03.796Z,49.67
2022-12-01T03:51:31.082Z,57.10
2022-12-01T03:54:01.171Z,53.28
2022-12-01T03:56:30.676Z,47.72
2022-12-01T03:58:58.568Z,53.38
2022-12-01T04:01:27.706Z,56.83
2022-12-01T04:03:54.870Z,53.30
2022-12-01T04:06:21.975Z,53.50
2022-12-01T04:08:49.073Z,56.13
2022-12-01T04:11:34.882Z,59.45
2022-12-01T04:14:01.928Z,53.75
2022-12-01T04:16:29.085Z,55.92
2022-12-01T04:18:56.213Z,54.92
2022-12-01T04:21:23.295Z,53.60
2022-12-01T04:24:03.035Z,55.25
2022-12-01T04:26:32.129Z,53.50
2022-12-01T04:29:02.712Z,46.17
2022-12-01T04:31:30.131Z,51.70
2022-12-01T04:33:58.173Z,52.28
2022-12-01T04:36:25.528Z,50.10
2022-12-01T04:38:52.829Z,53.47
2022-12-01T04:41:19.931Z,49.10
2022-12-01T04:43:47.057Z,53.63
2022-12-01T04:46:14.931Z,49.22
2022-12-01T04:48:43.225Z,50.05
2022-12-01T04:51:10.332Z,50.83
2022-12-01T04:53:37.586Z,55.58
2022-12-01T04:56:04.803Z,52.55
2022-12-01T04:58:32.620Z,51.90
2022-12-01T05:01:03.158Z,55.55
2022-12-01T05:03:30.613Z,46.22
2022-12-01T05:06:04.391Z,62.90
2022-12-01T05:08:31.548Z,50.53
2022-12-01T05:10:58.741Z,48.10
2022-12-01T05:13:25.839Z,50.40
2022-12-01T05:15:53.080Z,56.85
2022-12-01T05:18:20.269Z,53.15
2022-12-01T05:20:59.661Z,50.65
2022-12-01T05:23:27.528Z,56.03
2022-12-01T05:25:54.988Z,56.97
2022-12-01T05:28:22.841Z,51.15
2022-12-01T05:30:50.225Z,53.60
2022-12-01T05:33:17.379Z,48.75
2022-12-01T05:35:44.526Z,55.92
2022-12-01T05:38:11.687Z,50.47
2022-12-01T05:40:39.139Z,53.90
2022-12-01T05:43:06.555Z,59.65
2022-12-01T05:45:34.013Z,52.35
2022-12-01T05:48:01.580Z,53.17
2022-12-01T05:50:29.955Z,51.70
2022-12-01T05:52:57.337Z,53.13
2022-12-01T05:55:24.377Z,56.20
2022-12-01T05:57:51.468Z,60.70
2022-12-01T06:00:18.786Z,55.10
2022-12-01T06:02:45.872Z,51.85
2022-12-01T06:05:12.983Z,50.33
2022-12-01T06:07:40.422Z,56.17
2022-12-01T06:10:09.313Z,54.70
2022-12-01T06:12:36.982Z,58.33
2022-12-01T06:15:04.232Z,61.67
2022-12-01T06:17:34.558Z,56.58
2022-12-01T06:20:04.303Z,57.10
2022-12-01T06:22:31.391Z,52.60
2022-12-01T06:24:58.447Z,56.65
2022-12-01T06:27:25.533Z,50.38
2022-12-01T06:29:53.069Z,53.80
2022-12-01T06:32:20.440Z,59.05
2022-12-01T06:34:47.514Z,65.18
2022-12-01T06:37:15.717Z,61.67
2022-12-01T06:39:43.488Z,58.25
2022-12-01T06:42:10.655Z,56.72
2022-12-01T06:44:37.982Z,57.47
2022-12-01T06:47:05.260Z,53.72
2022-12-01T06:49:32.394Z,65.95
2022-12-01T06:52:01.082Z,62.25
2022-12-01T06:54:28.367Z,61.90
2022-12-01T06:56:55.480Z,73.53
2022-12-01T06:59:23.677Z,55.38
2022-12-01T07:01:51.209Z,61.05
2022-12-01T07:04:18.336Z,55.13
2022-12-01T07:06:45.434Z,64.30
2022-12-01T07:09:12.472Z,52.15
2022-12-01T07:11:39.573Z,65.00
2022-12-01T07:14:06.693Z,55.85
2022-12-01T07:16:33.883Z,55.17
2022-12-01T07:19:01.050Z,57.22
2022-12-01T07:21:28.229Z,62.00
2022-12-01T07:23:55.442Z,63.88
2022-12-01T07:26:23.439Z,56.25
2022-12-01T07:28:50.534Z,54.17
2022-12-01T07:31:18.999Z,67.43
2022-12-01T07:33:46.118Z,58.78
2022-12-01T07:36:13.370Z,59.97
2022-12-01T07:38:40.653Z,57.00
2022-12-01T07:41:12.066Z,58.08
2022-12-01T07:43:39.649Z,60.85
2022-12-01T07:46:20.316Z,54.80
2022-12-01T07:48:49.220Z,60.78
2022-12-01T07:51:19.320Z,56.15
2022-12-01T07:53:47.219Z,57.97
2022-12-01T07:56:14.586Z,56.17
2022-12-01T07:58:41.851Z,55.58
2022-12-01T08:01:09.042Z,55.20
2022-12-01T08:03:36.373Z,51.72
2022-12-01T08:06:03.961Z,53.67
2022-12-01T08:08:32.210Z,59.42
2022-12-01T08:11:03.133Z,57.20
2022-12-01T08:13:30.828Z,57.10
2022-12-01T08:15:58.177Z,62.40
2022-12-01T08:18:25.636Z,56.10
2022-12-01T08:20:57.430Z,56.78
2022-12-01T08:23:24.612Z,67.63
2022-12-01T08:25:52.546Z,65.32
2022-12-01T08:28:20.217Z,52.00
2022-12-01T08:30:47.994Z,65.72
2022-12-01T08:33:15.226Z,57.95
2022-12-01T08:35:42.293Z,59.60
2022-12-01T08:38:10.551Z,58.03
2022-12-01T08:40:37.641Z,54.00
2022-12-01T08:43:05.023Z,56.80
2022-12-01T08:45:32.150Z,54.28
2022-12-01T08:47:59.937Z,55.92
2022-12-01T08:50:27.830Z,63.83
2022-12-01T08:52:55.234Z,59.45
2022-12-01T08:55:22.722Z,51.63
2022-12-01T08:57:49.875Z,53.55
2022-12-01T09:00:17.247Z,62.97
2022-12-01T09:02:44.426Z,58.30
2022-12-01T09:05:11.584Z,63.20
2022-12-01T09:07:38.852Z,60.67
2022-12-01T09:10:06.334Z,51.97
2022-12-01T09:12:33.594Z,49.60
2022-12-01T09:15:00.776Z,59.28
2022-12-01T09:17:29.119Z,49.42
2022-12-01T09:19:56.290Z,57.90
2022-12-01T09:22:23.509Z,55.92
2022-12-01T09:24:50.750Z,53.13
2022-12-01T09:27:17.860Z,53.97
2022-12-01T09:29:44.978Z,54.20
2022-12-01T09:32:12.065Z,48.65
2022-12-01T09:34:39.264Z,53.80
2022-12-01T09:37:07.635Z,47.88
2022-12-01T09:39:34.807Z,48.10
2022-12-01T09:42:33.783Z,42.50
2022-12-01T09:45:04.606Z,45.28
2022-12-01T09:47:33.170Z,52.28
2022-12-01T09:50:03.303Z,47.05
2022-12-01T09:52:33.555Z,51.63
2022-12-01T09:55:01.512Z,45.97
2022-12-01T09:57:34.313Z,47.90
2022-12-01T10:00:03.005Z,45.78
2022-12-01T10:02:33.298Z,46.42
2022-12-01T10:05:02.590Z,49.15
2022-12-01T10:07:32.624Z,46.90
2022-12-01T10:10:04.943Z,44.60
2022-12-01T10:12:34.024Z,48.70
2022-12-01T10:15:11.555Z,49.47
2022-12-01T10:17:38.841Z,44.72
2022-12-01T10:20:15.118Z,46.85
2022-12-01T10:23:01.523Z,51.15
2022-12-01T10:25:29.708Z,48.28
2022-12-01T10:28:09.332Z,42.88
2022-12-01T10:30:39.413Z,56.90
2022-12-01T10:33:25.059Z,51.83
2022-12-01T10:35:52.761Z,48.65
2022-12-01T10:38:27.584Z,44.78
2022-12-01T10:40:55.498Z,47.38
2022-12-01T10:43:30.258Z,48.90
2022-12-01T10:45:58.392Z,44.03
2022-12-01T10:48:25.699Z,52.30
2022-12-01T10:50:54.203Z,42.65
2022-12-01T10:53:24.259Z,48.95
2022-12-01T10:55:52.367Z,48.88
2022-12-01T10:58:20.140Z,48.45
2022-12-01T11:01:00.625Z,40.70
2022-12-01T11:03:30.963Z,48.08
2022-12-01T11:05:59.474Z,51.85
2022-12-01T11:08:37.420Z,50.92
2022-12-01T11:11:04.815Z,53.72
2022-12-01T11:13:34.576Z,49.97
2022-12-01T11:16:03.190Z,49.05
2022-12-01T11:18:30.341Z,53.13
2022-12-01T11:21:16.718Z,51.67
2022-12-01T11:23:50.942Z,45.42
2022-12-01T11:26:20.873Z,50.13
2022-12-01T11:28:56.583Z,48.50
2022-12-01T11:31:25.465Z,44.38
2022-12-01T11:33:54.293Z,48.15
2022-12-01T11:36:23.538Z,49.70
2022-12-01T11:38:51.390Z,41.08
2022-12-01T11:41:33.072Z,47.53
2022-12-01T11:44:04.123Z,50.08
2022-12-01T11:46:46.303Z,48.33
2022-12-01T11:49:29.995Z,49.33
2022-12-01T11:51:57.199Z,44.85
2022-12-01T11:54:25.654Z,44.78
2022-12-01T11:57:25.249Z,43.20
2022-12-01T11:59:40.555Z,45.35
2022-12-01T12:02:25.911Z,47.90
2022-12-01T12:05:11.745Z,42.35
2022-12-01T12:07:59.084Z,46.75
2022-12-01T12:10:42.409Z,41.92
2022-12-01T12:13:15.853Z,51.70
2022-12-01T12:16:01.111Z,52.85
2022-12-01T12:18:46.592Z,50.35
2022-12-01T12:21:19.628Z,40.83
2022-12-01T12:23:55.141Z,49.63
2022-12-01T12:26:33.025Z,41.10
2022-12-01T12:29:14.115Z,42.38
2022-12-01T12:31:56.636Z,42.00
2022-12-01T12:34:42.087Z,41.50
2022-12-01T12:37:17.283Z,44.00
2022-12-01T12:40:02.898Z,42.00
2022-12-01T12:42:29.950Z,47.30
2022-12-01T12:45:02.235Z,43.35
2022-12-01T12:47:38.437Z,47.03
2022-12-01T12:50:05.553Z,39.10
2022-12-01T12:52:35.071Z,38.53
2022-12-01T12:55:12.559Z,36.38
2022-12-01T12:57:41.687Z,37.20
2022-12-01T13:00:16.056Z,40.20
2022-12-01T13:02:46.156Z,35.60
2022-12-01T13:05:24.659Z,36.08
2022-12-01T13:07:58.127Z,40.75
2022-12-01T13:10:43.870Z,33.63
2022-12-01T13:13:24.038Z,36.13
2022-12-01T13:15:52.067Z,38.50
2022-12-01T13:18:27.961Z,33.20
2022-12-01T13:20:56.566Z,33.65
2022-12-01T13:23:24.664Z,36.13
2022-12-01T13:25:54.063Z,38.38
2022-12-01T13:28:27.402Z,37.05
2022-12-01T13:31:02.273Z,37.33
2022-12-01T13:33:29.979Z,33.42
2022-12-01T13:36:29.969Z,38.13
2022-12-01T13:38:44.893Z,36.22
2022-12-01T13:41:24.307Z,37.42
2022-12-01T13:43:57.085Z,32.08
2022-12-01T13:46:30.541Z,36.28
2022-12-01T13:48:58.716Z,38.78
2022-12-01T13:51:26.401Z,30.10
2022-12-01T13:53:56.652Z,30.73
2022-12-01T13:56:23.734Z,40.85
2022-12-01T13:58:52.050Z,35.88
2022-12-01T14:01:22.761Z,36.75
2022-12-01T14:04:01.932Z,32.40
2022-12-01T14:06:46.388Z,33.72
2022-12-01T14:09:17.746Z,35.28
2022-12-01T14:11:55.857Z,38.28
2022-12-01T14:14:26.159Z,38.05
2022-12-01T14:16:53.592Z,35.80
2022-12-01T14:19:39.218Z,37.17
2022-12-01T14:22:07.371Z,41.80
2022-12-01T14:24:36.306Z,37.47
2022-12-01T14:27:04.693Z,39.70
2022-12-01T14:29:43.201Z,33.88
2022-12-01T14:32:10.541Z,32.85
2022-12-01T14:34:39.073Z,34.88
2022-12-01T14:37:06.337Z,35.22
2022-12-01T14:39:38.794Z,35.85
2022-12-01T14:42:11.885Z,35.90
2022-12-01T14:44:43.399Z,31.70
2022-12-01T14:47:20.541Z,31.38
2022-12-01T14:49:56.767Z,36.72
2022-12-01T14:52:29.889Z,31.63
2022-12-01T14:54:58.777Z,34.05
2022-12-01T14:57:29.907Z,30.20
2022-12-01T15:00:05.585Z,32.50
2022-12-01T15:02:33.099Z,35.58
2022-12-01T15:05:06.310Z,34.08
2022-12-01T15:07:51.744Z,30.77
2022-12-01T15:10:23.463Z,35.65
2022-12-01T15:12:51.486Z,31.42
2022-12-01T15:15:23.866Z,36.75
2022-12-01T15:17:52.192Z,30.48
2022-12-01T15:20:33.855Z,29.10
2022-12-01T15:23:02.346Z,36.42
2022-12-01T15:25:33.630Z,33.97
2022-12-01T15:28:05.459Z,35.92
2022-12-01T15:30:33.134Z,34.88
2022-12-01T15:33:00.499Z,31.27
2022-12-01T15:35:27.799Z,32.13
2022-12-01T15:37:55.905Z,36.65
2022-12-01T15:43:21.918Z,30.73
2022-12-01T15:45:55.971Z,27.08
2022-12-01T15:48:41.600Z,34.55
2022-12-01T15:51:11.782Z,32.63
2022-12-01T15:53:42.718Z,36.25
2022-12-01T15:56:11.187Z,36.05
2022-12-01T15:58:45.808Z,33.72
2022-12-01T16:01:14.651Z,35.78
2022-12-01T16:04:10.888Z,38.05
2022-12-01T16:06:39.204Z,33.53
2022-12-01T16:09:08.447Z,34.33
2022-12-01T16:11:35.651Z,31.40
2022-12-01T16:14:02.946Z,37.25
2022-12-01T16:16:46.280Z,41.45
2022-12-01T16:19:13.520Z,40.47
2022-12-01T16:21:50.950Z,34.65
2022-12-01T16:24:20.513Z,32.88
2022-12-01T16:26:59.387Z,33.80
2022-12-01T16:29:27.607Z,28.58
2022-12-01T16:32:19.206Z,34.13
2022-12-01T16:34:46.606Z,28.83
2022-12-01T16:37:14.416Z,36.80
2022-12-01T16:39:41.939Z,30.45
2022-12-01T16:42:12.693Z,35.05
2022-12-01T16:44:40.067Z,32.83
2022-12-01T16:47:12.836Z,38.55
2022-12-01T16:49:40.008Z,42.72
2022-12-01T16:52:36.648Z,34.85
2022-12-01T16:54:54.512Z,39.92
2022-12-01T16:57:21.694Z,43.97
2022-12-01T16:59:48.900Z,42.28
2022-12-01T17:02:16.280Z,45.60
2022-12-01T17:04:43.540Z,46.92
2022-12-01T17:07:10.822Z,49.78
2022-12-01T17:09:38.022Z,50.08
2022-12-01T17:12:05.260Z,46.15
2022-12-01T17:14:32.457Z,46.53
2022-12-01T17:16:59.652Z,47.35
2022-12-01T17:19:26.753Z,51.15
2022-12-01T17:21:55.753Z,51.33
2022-12-01T17:24:22.894Z,53.88
2022-12-01T17:26:50.080Z,49.42
2022-12-01T17:29:17.212Z,54.28
2022-12-01T17:31:44.423Z,53.15
2022-12-01T17:34:11.725Z,53.00
2022-12-01T17:36:38.870Z,50.53
2022-12-01T17:39:06.112Z,48.25
2022-12-01T17:41:35.627Z,48.25
2022-12-01T17:44:03.715Z,47.25
2022-12-01T17:46:31.223Z,46.53
2022-12-01T17:48:59.348Z,49.35
2022-12-01T17:51:26.588Z,51.28
2022-12-01T17:53:54.154Z,51.92
2022-12-01T17:56:21.332Z,48.63
2022-12-01T17:58:50.562Z,56.67
2022-12-01T18:01:19.045Z,69.38
2022-12-01T18:03:46.309Z,59.47
2022-12-01T18:06:13.684Z,44.47
2022-12-01T18:08:40.865Z,58.70
2022-12-01T18:11:10.084Z,52.30
2022-12-01T18:13:38.465Z,55.17
2022-12-01T18:16:13.361Z,50.47
2022-12-01T18:18:40.580Z,50.90
2022-12-01T18:21:08.673Z,54.03
2022-12-01T18:23:36.046Z,63.65
2022-12-01T18:26:05.072Z,62.65
2022-12-01T18:28:32.585Z,55.05
2022-12-01T18:31:07.336Z,59.97
2022-12-01T18:33:35.276Z,52.50
2022-12-01T18:36:02.582Z,60.08
2022-12-01T18:38:29.689Z,56.30
2022-12-01T18:41:00.537Z,56.92
2022-12-01T18:43:31.556Z,52.53
2022-12-01T18:45:59.280Z,59.83
2022-12-01T18:48:27.037Z,60.20
2022-12-01T18:50:59.241Z,49.00
2022-12-01T18:53:26.749Z,60.75
2022-12-01T18:55:53.809Z,60.97
2022-12-01T18:58:20.952Z,61.78
2022-12-01T19:00:48.134Z,55.80
2022-12-01T19:03:15.888Z,54.20
2022-12-01T19:05:42.952Z,57.17
2022-12-01T19:08:10.126Z,56.63
2022-12-01T19:10:37.259Z,54.78
2022-12-01T19:13:04.321Z,52.42
2022-12-01T19:15:31.402Z,53.72
2022-12-01T19:17:58.510Z,46.75
2022-12-01T19:20:25.549Z,54.42
2022-12-01T19:22:52.667Z,55.20
2022-12-01T19:25:19.809Z,57.92
2022-12-01T19:27:47.641Z,55.25
2022-12-01T19:30:14.824Z,65.25
2022-12-01T19:32:43.502Z,65.03
2022-12-01T19:35:10.659Z,58.30
2022-12-01T19:37:37.744Z,54.53
2022-12-01T19:40:04.973Z,59.97
2022-12-01T19:42:32.057Z,61.33
2022-12-01T19:44:59.335Z,63.95
2022-12-01T19:47:26.456Z,58.92
2022-12-01T19:49:53.522Z,53.28
2022-12-01T19:52:20.628Z,57.47
2022-12-01T19:54:48.001Z,55.10
2022-12-01T19:57:15.347Z,53.95
2022-12-01T19:59:42.530Z,59.38
2022-12-01T20:02:10.547Z,50.13
2022-12-01T20:04:39.441Z,52.53
2022-12-01T20:07:06.675Z,55.17
2022-12-01T20:09:33.977Z,47.22
2022-12-01T20:12:01.104Z,57.83
2022-12-01T20:14:28.144Z,53.60
2022-12-01T20:16:55.866Z,51.72
2022-12-01T20:19:23.049Z,53.38
2022-12-01T20:21:50.193Z,49.13
2022-12-01T20:24:22.789Z,53.70
2022-12-01T20:26:51.859Z,56.42
2022-12-01T20:29:23.619Z,51.72
2022-12-01T20:31:51.981Z,55.88
2022-12-01T20:34:20.819Z,58.13
2022-12-01T20:36:48.376Z,60.33
2022-12-01T20:39:15.934Z,51.78
2022-12-01T20:41:43.148Z,59.22
2022-12-01T20:44:10.576Z,55.10
2022-12-01T20:46:38.496Z,59.15
2022-12-01T20:49:05.865Z,53.00
2022-12-01T20:51:33.373Z,54.55
2022-12-01T20:54:26.730Z,54.72
2022-12-01T20:56:48.263Z,52.38
2022-12-01T20:59:15.357Z,55.20
2022-12-01T21:01:42.466Z,56.65
2022-12-01T21:04:09.630Z,66.05
2022-12-01T21:06:36.769Z,58.33
2022-12-01T21:09:04.927Z,53.42
2022-12-01T21:11:55.383Z,53.75
2022-12-01T21:14:28.542Z,56.92
2022-12-01T21:16:57.273Z,61.45
2022-12-01T21:19:31.339Z,49.78
2022-12-01T21:21:59.002Z,52.88
2022-12-01T21:24:33.569Z,51.45
2022-12-01T21:27:06.549Z,55.92
2022-12-01T21:29:45.544Z,67.15
2022-12-01T21:32:17.392Z,61.00
2022-12-01T21:34:45.182Z,68.07
2022-12-01T21:37:17.436Z,63.30
2022-12-01T21:39:44.484Z,66.75
2022-12-01T21:42:16.564Z,63.70
2022-12-01T21:47:18.495Z,53.53
2022-12-01T21:49:46.049Z,56.30
2022-12-01T21:52:23.444Z,49.58
2022-12-01T21:54:50.931Z,57.78
2022-12-01T21:57:30.591Z,61.50
2022-12-01T22:00:24.148Z,60.78
2022-12-01T22:03:02.453Z,52.67
2022-12-01T22:05:35.857Z,50.80
2022-12-01T22:08:11.155Z,56.28
2022-12-01T22:10:56.815Z,56.55
2022-12-01T22:13:40.950Z,60.13
2022-12-01T22:16:17.093Z,50.03
2022-12-01T22:18:51.687Z,52.83
2022-12-01T22:21:27.980Z,58.78
2022-12-01T22:24:01.503Z,53.33
2022-12-01T22:26:28.684Z,53.28
2022-12-01T22:28:58.009Z,48.25
2022-12-01T22:31:25.260Z,54.67
2022-12-01T22:34:00.044Z,43.28
2022-12-01T22:36:31.314Z,49.75
2022-12-01T22:38:58.691Z,48.35
2022-12-01T22:41:28.676Z,43.53
2022-12-01T22:44:00.667Z,48.35
2022-12-01T22:48:56.586Z,46.38
2022-12-01T22:51:31.521Z,46.15
2022-12-01T22:54:00.526Z,46.42
2022-12-01T22:56:39.955Z,51.15
2022-12-01T22:59:17.484Z,49.75
2022-12-01T23:01:58.346Z,46.70
2022-12-01T23:04:26.746Z,51.20
2022-12-01T23:06:53.859Z,37.33
2022-12-01T23:09:22.249Z,43.45
2022-12-01T23:12:12.624Z,40.50
2022-12-01T23:14:41.923Z,49.25
2022-12-01T23:17:13.700Z,41.22
2022-12-01T23:19:40.781Z,36.60
2022-12-01T23:22:07.896Z,38.08
2022-12-01T23:24:34.944Z,36.05
2022-12-01T23:27:02.084Z,37.08
2022-12-01T23:29:30.918Z,36.97
2022-12-01T23:31:58.485Z,37.25
2022-12-01T23:34:25.580Z,35.55
2022-12-01T23:36:52.754Z,32.53
2022-12-01T23:39:21.023Z,33.20
2022-12-01T23:41:49.274Z,34.80
2022-12-01T23:44:21.314Z,35.90
2022-12-01T23:49:17.037Z,34.95
2022-12-01T23:51:46.161Z,37.50
2022-12-01T23:54:18.937Z,39.15
2022-12-01T23:56:49.246Z,35.53
2022-12-01T23:59:16.317Z,29.20
